Time;durP1;ratioP1;P1;durP2;ratioP2;P2;SDS_P1;SDS_P2;PMS_P1;PMS_P2;Temp;Humidity;BMP_temperature;BMP_pressure;BME280_temperature;BME280_humidity;BME280_pressure;Samples;Min_cycle;Max_cycle;Signal;HPM_P1;HPM_P2
2023/02/14 05:43:48;;;;;;;14.40;7.60;;;;;;;1.90;100.00;100162.89;111524;1249;22437;-50
2023/02/14 05:46:16;;;;;;;11.30;7.60;;;;;;;1.91;100.00;100159.66;113065;1249;22161;-49
2023/02/14 05:48:44;;;;;;;14.50;7.90;;;;;;;1.92;100.00;100163.85;113079;1249;22384;-51
2023/02/14 05:51:11;;;;;;;11.80;8.00;;;;;;;1.94;100.00;100168.03;113045;1248;23313;-40
2023/02/14 05:53:38;;;;;;;15.80;7.90;;;;;;;1.96;100.00;100161.89;112933;1248;22277;-50
2023/02/14 05:56:05;;;;;;;10.90;6.80;;;;;;;1.97;100.00;100160.74;113000;1249;22398;-42
2023/02/14 05:58:33;;;;;;;11.90;8.00;;;;;;;1.98;100.00;100163.69;112891;1249;22895;-42
2023/02/14 06:01:00;;;;;;;8.60;6.70;;;;;;;1.98;100.00;100164.23;112983;1249;22249;-42
2023/02/14 06:03:28;;;;;;;12.40;7.00;;;;;;;1.99;100.00;100164.93;111886;1249;22488;-40
2023/02/14 06:05:56;;;;;;;9.50;7.20;;;;;;;2.00;100.00;100168.21;112757;1249;23390;-41
2023/02/14 06:08:24;;;;;;;11.00;6.70;;;;;;;2.00;100.00;100169.95;112680;1249;25347;-50
2023/02/14 06:10:51;;;;;;;11.30;7.40;;;;;;;2.00;100.00;100169.77;112256;1249;22418;-48
2023/02/14 06:13:23;;;;;;;9.60;5.90;;;;;;;1.99;100.00;100167.00;112905;1249;22363;-40
2023/02/14 06:15:50;;;;;;;9.20;6.30;;;;;;;1.97;100.00;100171.92;112780;1248;24177;-41
2023/02/14 06:18:17;;;;;;;12.90;7.80;;;;;;;1.96;100.00;100170.83;112841;1249;22454;-49
2023/02/14 06:20:44;;;;;;;7.10;5.50;;;;;;;1.95;100.00;100174.94;112802;1249;22504;-41
2023/02/14 06:23:12;;;;;;;10.00;6.20;;;;;;;1.94;100.00;100174.73;112884;1249;22507;-41
2023/02/14 06:25:39;;;;;;;8.70;5.70;;;;;;;1.94;100.00;100167.69;112785;1249;23186;-49
2023/02/14 06:28:06;;;;;;;8.50;5.60;;;;;;;1.93;100.00;100172.64;112800;1249;22407;-49
2023/02/14 06:30:33;;;;;;;9.70;6.40;;;;;;;1.92;100.00;100172.08;112773;1249;22822;-50
2023/02/14 06:33:00;;;;;;;8.60;5.90;;;;;;;1.91;100.00;100163.79;112670;1249;22428;-47
2023/02/14 06:35:27;;;;;;;7.00;5.70;;;;;;;1.91;100.00;100163.60;112561;1249;22874;-50
2023/02/14 06:37:55;;;;;;;8.10;5.70;;;;;;;1.90;100.00;100165.64;112251;1248;22496;-49
2023/02/14 06:40:29;;;;;;;7.40;5.30;;;;;;;1.90;100.00;100168.41;111685;1249;22273;-50
2023/02/14 06:43:27;;;;;;;9.60;5.60;;;;;;;1.91;100.00;100162.23;112641;1249;22402;-49
2023/02/14 06:46:01;;;;;;;7.90;5.50;;;;;;;1.92;100.00;100163.14;112239;1248;23378;-49
2023/02/14 06:48:34;;;;;;;10.70;5.30;;;;;;;1.93;100.00;100164.05;112450;1248;22441;-50
2023/02/14 06:51:02;;;;;;;8.20;5.90;;;;;;;1.95;100.00;100162.55;112554;1249;22428;-40
2023/02/14 06:53:29;;;;;;;10.90;5.70;;;;;;;1.96;100.00;100166.55;112505;1249;22559;-49
2023/02/14 06:55:56;;;;;;;11.80;5.80;;;;;;;1.97;100.00;100166.73;112786;1249;22448;-41
2023/02/14 06:58:23;;;;;;;8.60;5.70;;;;;;;1.98;100.00;100166.11;112763;1249;22253;-42
2023/02/14 07:00:50;;;;;;;9.20;5.70;;;;;;;2.00;100.00;100167.17;112112;1249;23140;-42
2023/02/14 07:03:31;;;;;;;7.00;5.10;;;;;;;2.01;100.00;100172.73;112788;1249;22332;-48
2023/02/14 07:06:13;;;;;;;10.20;5.50;;;;;;;2.02;100.00;100176.89;111952;1249;22535;-44
2023/02/14 07:08:41;;;;;;;8.80;5.70;;;;;;;2.03;100.00;100181.56;112067;1250;22382;-51
2023/02/14 07:11:22;;;;;;;9.20;5.90;;;;;;;2.03;100.00;100181.23;113389;1245;22212;31
2023/02/14 07:13:56;;;;;;;;;;;;;;;2.05;100.00;100186.62;112366;1248;22391;-49
2023/02/14 07:16:23;;;;;;;8.60;5.40;;;;;;;2.05;100.00;100190.76;112419;1248;23006;-41
2023/02/14 07:18:49;;;;;;;8.50;5.20;;;;;;;2.05;100.00;100190.42;112685;1248;22184;-41
2023/02/14 07:21:16;;;;;;;8.40;5.60;;;;;;;2.07;100.00;100186.34;112775;1248;22396;-51
2023/02/14 07:23:46;;;;;;;6.70;4.40;;;;;;;2.09;100.00;100186.25;112777;1249;22410;-49
2023/02/14 07:26:16;;;;;;;7.30;4.90;;;;;;;2.12;100.00;100185.98;112670;1248;22420;-51
2023/02/14 07:28:44;;;;;;;6.90;4.70;;;;;;;2.14;100.00;100187.41;112700;1249;22550;-49
2023/02/14 07:31:11;;;;;;;7.60;5.20;;;;;;;2.15;100.00;100188.15;112895;1248;22485;-50
2023/02/14 07:33:39;;;;;;;6.10;5.00;;;;;;;2.15;100.00;100187.81;112907;1248;22389;-49
2023/02/14 07:36:07;;;;;;;6.70;4.80;;;;;;;2.16;100.00;100183.55;112851;1248;22532;-50
2023/02/14 07:38:34;;;;;;;7.00;5.10;;;;;;;2.17;100.00;100183.05;112870;1248;23145;-49
2023/02/14 07:41:01;;;;;;;8.10;4.50;;;;;;;2.18;100.00;100181.02;112879;1248;23129;-51
2023/02/14 07:43:29;;;;;;;8.00;4.60;;;;;;;2.21;100.00;100185.41;112926;1248;22352;-50
2023/02/14 07:45:55;;;;;;;4.20;3.80;;;;;;;2.23;100.00;100187.36;112980;1248;22814;-50
2023/02/14 07:48:24;;;;;;;6.80;4.60;;;;;;;2.25;100.00;100193.45;112870;1248;22391;-49
2023/02/14 07:50:51;;;;;;;6.40;4.80;;;;;;;2.29;100.00;100199.79;112703;1248;22489;-41
2023/02/14 07:53:18;;;;;;;9.00;4.70;;;;;;;2.34;100.00;100198.21;112916;1248;22377;-40
2023/02/14 07:55:48;;;;;;;6.10;4.40;;;;;;;2.38;100.00;100194.58;112809;1248;22499;-40
2023/02/14 07:58:15;;;;;;;7.80;4.80;;;;;;;2.44;100.00;100196.64;112804;1248;23057;-42
2023/02/14 08:00:42;;;;;;;7.00;4.50;;;;;;;2.50;100.00;100192.01;112889;1248;22467;-41
2023/02/14 08:03:12;;;;;;;6.50;4.40;;;;;;;2.57;100.00;100198.08;112856;1248;22276;-41
2023/02/14 08:05:39;;;;;;;5.90;4.40;;;;;;;2.64;100.00;100195.70;112911;1248;22405;-41
2023/02/14 08:08:07;;;;;;;9.60;5.50;;;;;;;2.70;100.00;100198.98;112855;1248;22360;-41
2023/02/14 08:10:39;;;;;;;6.50;4.50;;;;;;;2.73;100.00;100197.16;112884;1249;22368;-40
2023/02/14 08:13:05;;;;;;;5.10;4.00;;;;;;;2.70;100.00;100200.70;112928;1248;22269;-41
2023/02/14 08:18:20;;;;;;;5.90;4.10;;;;;;;2.62;100.00;100204.09;112754;1248;22341;-41
2023/02/14 08:20:49;;;;;;;5.40;3.80;;;;;;;2.61;100.00;100204.77;112759;1249;22399;-41
2023/02/14 08:23:18;;;;;;;6.10;4.00;;;;;;;2.65;100.00;100202.63;112922;1248;22392;-40
2023/02/14 08:25:45;;;;;;;6.30;4.10;;;;;;;2.71;100.00;100202.29;112955;1248;23172;-49
2023/02/14 08:28:15;;;;;;;4.60;3.40;;;;;;;2.78;100.00;100200.44;112808;1248;22269;-49
2023/02/14 08:30:42;;;;;;;5.40;3.80;;;;;;;2.85;100.00;100201.00;112951;1248;22770;-49
2023/02/14 08:33:10;;;;;;;7.10;3.80;;;;;;;2.92;100.00;100202.41;112910;1248;22768;-51
2023/02/14 08:35:37;;;;;;;5.30;3.80;;;;;;;2.98;100.00;100202.55;112889;1249;22402;-41
2023/02/14 08:38:04;;;;;;;4.50;3.60;;;;;;;3.04;100.00;100198.77;112786;1249;22446;-49
2023/02/14 08:40:32;;;;;;;6.40;4.10;;;;;;;3.12;100.00;100196.09;112902;1248;22388;-40
2023/02/14 08:42:59;;;;;;;5.70;3.80;;;;;;;3.21;100.00;100198.73;112897;1249;22437;-41
2023/02/14 08:45:26;;;;;;;6.30;3.00;;;;;;;3.27;100.00;100200.12;112941;1248;23118;-50
2023/02/14 08:47:53;;;;;;;4.40;3.40;;;;;;;3.30;100.00;100201.06;112989;1248;22382;-50
2023/02/14 08:50:20;;;;;;;4.10;3.00;;;;;;;3.32;100.00;100204.23;112988;1248;23165;-49
2023/02/14 08:52:46;;;;;;;5.60;3.30;;;;;;;3.34;100.00;100204.62;112960;1248;23272;-49
2023/02/14 08:55:14;;;;;;;5.40;2.90;;;;;;;3.35;100.00;100206.36;112931;1249;22383;-49
2023/02/14 08:57:41;;;;;;;3.80;2.50;;;;;;;3.36;100.00;100210.37;112947;1249;22957;-50
2023/02/14 09:00:08;;;;;;;4.40;2.80;;;;;;;3.35;100.00;100214.81;112962;1249;22396;-40
2023/02/14 09:02:38;;;;;;;3.10;2.20;;;;;;;3.34;100.00;100217.90;112751;1248;22606;-49
2023/02/14 09:05:09;;;;;;;6.20;2.80;;;;;;;3.35;100.00;100222.77;112450;1248;22414;-40
2023/02/14 09:07:40;;;;;;;3.90;2.80;;;;;;;3.39;100.00;100223.04;112138;1244;22964;-40
2023/02/14 09:10:09;;;;;;;4.70;2.90;;;;;;;3.41;100.00;100226.90;111439;1249;23003;-41
2023/02/14 09:12:39;;;;;;;5.80;3.10;;;;;;;3.45;100.00;100225.79;111795;1249;22501;-41
2023/02/14 09:15:08;;;;;;;3.80;2.70;;;;;;;3.49;100.00;100222.80;112148;1248;22834;-50
2023/02/14 09:17:36;;;;;;;4.60;2.70;;;;;;;3.55;100.00;100227.60;112762;1248;22414;-40
2023/02/14 09:20:16;;;;;;;3.10;1.90;;;;;;;3.58;100.00;100232.35;112685;1248;22393;-48
2023/02/14 09:22:53;;;;;;;4.00;2.40;;;;;;;3.57;99.95;100224.73;112673;1248;22604;-40
2023/02/14 09:25:28;;;;;;;6.40;2.60;;;;;;;3.57;100.00;100219.91;112000;1248;23327;-41
2023/02/14 09:27:57;;;;;;;3.20;2.40;;;;;;;3.61;100.00;100218.98;112715;1249;24207;-43
2023/02/14 09:30:24;;;;;;;6.90;2.90;;;;;;;3.66;99.22;100222.22;112150;1248;22990;-46
2023/02/14 09:32:52;;;;;;;4.00;2.80;;;;;;;3.70;98.45;100226.65;112752;1248;22260;-40
2023/02/14 09:35:19;;;;;;;2.50;2.20;;;;;;;3.74;97.95;100232.43;112782;1248;22747;-40
2023/02/14 09:40:33;;;;;;;4.40;2.50;;;;;;;3.80;94.64;100218.44;112664;1248;25330;-41
2023/02/14 09:43:11;;;;;;;4.40;2.40;;;;;;;3.83;95.87;100219.06;112287;1249;22291;-50
2023/02/14 09:45:42;;;;;;;5.50;2.00;;;;;;;3.86;93.97;100217.39;112381;1249;22237;-50
2023/02/14 09:48:20;;;;;;;4.10;1.90;;;;;;;3.84;93.36;100218.39;112398;1248;23049;-40
2023/02/14 09:50:50;;;;;;;7.90;2.50;;;;;;;3.80;92.72;100222.06;112078;1248;25388;-43
2023/02/14 09:53:58;;;;;;;3.80;1.90;;;;;;;3.75;92.89;100224.88;112615;1248;22896;-39
2023/02/14 09:57:02;;;;;;;3.80;1.90;;;;;;;3.71;92.45;100226.50;112442;1248;22952;-50
2023/02/14 09:59:36;;;;;;;3.80;2.20;;;;;;;3.67;91.84;100229.84;112640;1249;22953;-49
2023/02/14 10:02:03;;;;;;;3.70;1.70;;;;;;;3.65;91.33;100235.67;112722;1249;22569;-50
2023/02/14 10:04:31;;;;;;;2.40;1.50;;;;;;;3.66;91.12;100227.73;112804;1249;22410;-41
2023/02/14 10:07:16;;;;;;;2.40;1.80;;;;;;;3.67;90.67;100225.02;112627;1249;23210;-41
2023/02/14 10:09:53;;;;;;;8.70;2.50;;;;;;;3.71;91.37;100227.50;112712;1248;23199;-40
2023/02/14 10:12:30;;;;;;;4.70;2.40;;;;;;;3.73;90.81;100226.20;112500;1248;22741;-41
2023/02/14 10:14:59;;;;;;;4.10;2.10;;;;;;;3.72;88.04;100227.21;112836;1249;22392;-41
2023/02/14 10:17:38;;;;;;;3.90;1.90;;;;;;;3.68;88.24;100234.34;112721;1249;23111;-41
2023/02/14 10:20:21;;;;;;;2.90;1.70;;;;;;;3.66;88.89;100236.20;112610;1248;23011;-50
2023/02/14 10:22:54;;;;;;;5.80;2.40;;;;;;;3.67;89.86;100237.43;112654;1248;23232;-50
2023/02/14 10:25:27;;;;;;;6.50;2.50;;;;;;;3.71;88.96;100237.55;112945;1248;22371;-49
2023/02/14 10:27:55;;;;;;;2.00;1.50;;;;;;;3.75;87.88;100236.09;112849;1249;22359;-50
2023/02/14 10:30:22;;;;;;;2.60;1.90;;;;;;;3.80;86.44;100240.17;112598;1249;22279;-42
2023/02/14 10:32:58;;;;;;;4.70;2.00;;;;;;;3.82;85.73;100230.23;112587;1248;22566;-42
2023/02/14 10:35:57;;;;;;;4.00;1.80;;;;;;;3.82;85.19;100226.09;112282;1248;22370;-49
2023/02/14 10:39:04;;;;;;;3.30;2.10;;;;;;;3.81;83.60;100223.81;112459;1249;23185;-49
2023/02/14 10:41:59;;;;;;;3.70;1.50;;;;;;;3.77;82.36;100220.23;112233;1248;22396;-41
2023/02/14 10:51:27;;;;;;;2.30;1.30;;;;;;;3.71;78.58;100223.21;112407;1248;23036;-42
2023/02/14 10:54:37;;;;;;;1.70;1.00;;;;;;;3.67;75.89;100220.51;112652;1249;22382;-41
2023/02/14 10:57:14;;;;;;;4.30;1.50;;;;;;;3.61;75.00;100221.23;112189;1248;22839;-42
2023/02/14 11:00:02;;;;;;;2.80;1.40;;;;;;;3.57;75.75;100211.80;112610;1249;22418;-41
2023/02/14 11:02:39;;;;;;;3.20;1.60;;;;;;;3.57;75.69;100209.72;112139;1249;22484;-41
2023/02/14 11:05:07;;;;;;;3.40;1.50;;;;;;;3.57;75.96;100204.39;112241;1248;22614;-41
2023/02/14 11:07:34;;;;;;;3.80;1.40;;;;;;;3.58;76.12;100204.39;112834;1248;22367;-51
2023/02/14 11:10:10;;;;;;;2.50;1.20;;;;;;;3.57;76.06;100196.80;112887;1249;22380;-45
2023/02/14 11:12:40;;;;;;;3.60;2.00;;;;;;;3.58;75.38;100198.02;112582;1248;23267;-45
2023/02/14 11:15:13;;;;;;;2.40;1.20;;;;;;;3.59;74.81;100199.25;112719;1248;22378;-49
2023/02/14 11:17:44;;;;;;;1.90;1.20;;;;;;;3.60;74.24;100199.63;112717;1248;23403;-49
2023/02/14 11:20:29;;;;;;;2.00;1.30;;;;;;;3.61;74.51;100200.02;111655;1248;22510;-50
2023/02/14 11:23:17;;;;;;;2.60;1.10;;;;;;;3.62;74.67;100205.55;112592;1248;22486;-49
2023/02/14 11:25:54;;;;;;;4.40;1.40;;;;;;;3.59;74.80;100209.77;112758;1249;22778;-48
2023/02/14 11:28:24;;;;;;;3.90;1.60;;;;;;;3.55;75.05;100217.27;112396;1249;22413;-49
2023/02/14 11:31:03;;;;;;;2.00;1.30;;;;;;;3.51;75.53;100216.63;112843;1241;22523;-49
2023/02/14 11:33:39;;;;;;;4.20;1.60;;;;;;;3.47;76.21;100208.61;112370;1248;23090;-49
2023/02/14 11:36:13;;;;;;;4.10;1.60;;;;;;;3.46;76.63;100208.05;112277;1249;23016;-49
2023/02/14 11:38:41;;;;;;;5.00;1.70;;;;;;;3.44;76.74;100210.09;111601;1249;22432;-40
2023/02/14 11:41:09;;;;;;;3.00;1.70;;;;;;;3.44;76.96;100213.54;112411;1248;22463;-40
2023/02/14 11:43:36;;;;;;;8.60;1.80;;;;;;;3.43;76.96;100211.60;112704;1248;22309;-40
2023/02/14 11:46:13;;;;;;;2.80;1.70;;;;;;;3.41;76.36;100217.59;112836;1248;23206;-49
2023/02/14 11:48:55;;;;;;;5.30;1.70;;;;;;;3.37;76.01;100214.36;112689;1249;22306;-49
2023/02/14 11:51:35;;;;;;;4.80;1.70;;;;;;;3.33;76.44;100212.34;112850;1249;22395;-49
2023/02/14 11:54:04;;;;;;;2.00;1.20;;;;;;;3.29;76.79;100212.59;112875;1248;22325;-40
2023/02/14 11:56:48;;;;;;;2.40;1.50;;;;;;;3.27;77.45;100205.48;112670;1248;22861;-41
2023/02/14 11:59:32;;;;;;;2.80;1.20;;;;;;;3.24;78.01;100201.06;112821;1248;22345;-41
2023/02/14 12:02:24;;;;;;;2.30;1.40;;;;;;;3.21;78.36;100204.61;112592;1248;22388;-43
2023/02/14 12:04:53;;;;;;;3.20;1.80;;;;;;;3.17;78.70;100197.94;112590;1248;22448;-49
2023/02/14 12:07:34;;;;;;;6.80;1.60;;;;;;;3.13;79.54;100190.27;112787;1249;22385;-40
2023/02/14 12:10:07;;;;;;;3.80;1.50;;;;;;;3.11;79.92;100193.12;112778;1249;22259;-40
2023/02/14 12:12:34;;;;;;;2.50;1.30;;;;;;;3.08;80.62;100194.59;112729;1248;22376;-41
2023/02/14 12:15:23;;;;;;;2.80;1.30;;;;;;;3.06;81.20;100188.84;112890;1248;22382;-49
2023/02/14 12:18:06;;;;;;;3.60;1.50;;;;;;;3.04;81.46;100192.92;112950;1248;22408;-49
2023/02/14 12:20:39;;;;;;;5.30;2.00;;;;;;;3.03;81.90;100191.02;112829;1248;23467;-41
2023/02/14 12:23:09;;;;;;;;;;;;;;;3.03;82.21;100191.17;112870;1249;22378;-50
2023/02/14 12:25:46;;;;;;;4.60;2.20;;;;;;;3.02;81.88;100194.42;112917;1248;23335;-49
2023/02/14 12:28:15;;;;;;;2.30;1.50;;;;;;;3.03;81.76;100189.79;112444;1248;22346;-49
2023/02/14 12:30:42;;;;;;;7.00;1.60;;;;;;;3.04;81.46;100197.56;112720;1249;23118;-50
2023/02/14 12:33:20;;;;;;;2.70;1.30;;;;;;;3.06;81.20;100195.20;112871;1248;22391;-40
2023/02/14 12:36:00;;;;;;;1.20;1.10;;;;;;;3.06;80.82;100194.17;112790;1248;23353;-39
2023/02/14 12:38:37;;;;;;;2.40;1.40;;;;;;;3.06;80.79;100198.31;112974;1249;23245;-49
2023/02/14 12:41:19;;;;;;;4.30;1.40;;;;;;;3.06;80.83;100192.45;112655;1248;22632;-39
2023/02/14 12:43:52;;;;;;;6.40;1.70;;;;;;;3.05;80.74;100196.74;112934;1248;22319;-48
2023/02/14 12:46:50;;;;;;;4.20;1.70;;;;;;;3.05;80.59;100195.35;112792;1249;22947;-39
2023/02/14 12:49:48;;;;;;;2.40;1.50;;;;;;;3.05;80.72;100202.06;112866;1249;22432;-49
2023/02/14 12:52:36;;;;;;;5.50;1.80;;;;;;;3.02;80.61;100197.71;112247;1256;23134;-49
2023/02/14 12:55:40;;;;;;;3.70;1.50;;;;;;;3.01;80.78;100195.23;111420;1256;22437;-47
2023/02/14 12:58:17;;;;;;;2.60;1.60;;;;;;;2.99;80.99;100203.45;112346;1256;22322;-39
2023/02/14 13:00:43;;;;;;;4.60;1.80;;;;;;;2.97;81.67;100200.80;112100;1256;22649;-48
2023/02/14 13:03:29;;;;;;;5.00;1.60;;;;;;;2.95;82.11;100199.89;112278;1256;22409;-48
2023/02/14 13:06:00;;;;;;;8.20;2.40;;;;;;;2.95;82.87;100195.58;111542;1256;23271;-41
2023/02/14 13:09:09;;;;;;;3.80;2.00;;;;;;;2.95;83.24;100199.88;111819;1256;22457;-40
2023/02/14 13:11:59;;;;;;;9.00;2.90;;;;;;;2.94;83.79;100196.09;110977;1256;22271;-48
2023/02/14 13:14:51;;;;;;;7.30;2.00;;;;;;;2.97;84.44;100188.58;111791;1256;22507;-40
2023/02/14 13:17:20;;;;;;;4.10;1.50;;;;;;;2.99;85.10;100195.00;111439;1256;24203;-48
